Time;durP1;ratioP1;P1;durP2;ratioP2;P2;SDS_P1;SDS_P2;PMS_P1;PMS_P2;Temp;Humidity;BMP_temperature;BMP_pressure;BME280_temperature;BME280_humidity;BME280_pressure;Samples;Min_cycle;Max_cycle;Signal;HPM_P1;HPM_P2
2022/09/15 00:00:46;;;;;;;;;;;;;;;;;;;;;
2022/09/15 00:03:34;;;;;;;;;;;;;;;;;;;;;
2022/09/15 00:06:05;;;;;;;47.33;12.77;;;;;;;;;;6272636;22;20923;-90
2022/09/15 00:08:59;;;;;;;48.43;13.40;;;;;;;;;;6244424;22;20389;-91
2022/09/15 00:35:48;;;;;;;23.87;10.50;;;;;;;;;;6266760;22;20945;-93
2022/09/15 00:38:19;;;;;;;69.63;11.33;;;;;;;;;;6259114;22;20409;-92
2022/09/15 00:44:09;;;;;;;48.73;14.20;;;;;;;;;;6285315;22;20442;-93
2022/09/15 00:55:20;;;;;;;62.47;11.97;;;;;;;;;;6281897;22;20450;-92
2022/09/15 00:58:12;;;;;;;55.83;11.90;;;;;;;;;;6239686;22;20444;-92
2022/09/15 01:00:54;;;;;;;68.53;12.93;;;;;;;;;;6248789;22;20431;-91
2022/09/15 01:03:59;;;;;;;32.70;11.70;;;;;;;;;;6262813;22;20415;-93
2022/09/15 01:10:36;;;;;;;36.23;12.53;;;;;;;;;;6256379;22;20444;-93
2022/09/15 01:13:42;;;;;;;67.67;15.50;;;;;;;;;;6197893;23;20387;-92
2022/09/15 02:37:08;;;;;;;19.60;11.60;;;;;;;;;;6284030;22;20466;-91
2022/09/15 02:40:07;;;;;;;19.40;11.40;;;;;;;;;;6258102;22;20392;-92
2022/09/15 02:42:58;;;;;;;18.17;12.30;;;;;;;;;;6254835;22;20389;-92
2022/09/15 02:56:36;;;;;;;19.13;12.30;;;;;;;;;;6273533;22;20444;-92
2022/09/15 03:21:54;;;;;;;22.03;14.03;;;;;;;;;;6240749;22;20959;-92
2022/09/15 03:24:43;;;;;;;;;;;;;;;;;;;;;
2022/09/15 03:27:16;;;;;;;19.77;13.17;;;;;;;;;;6248277;23;20397;-91
2022/09/15 03:29:53;;;;;;;24.30;13.43;;;;;;;;;;6232463;23;20382;-91
2022/09/15 03:32:19;;;;;;;18.30;14.03;;;;;;;;;;6262273;23;20368;-91
2022/09/15 03:35:04;;;;;;;25.70;15.50;;;;;;;;;;6236696;23;20393;-91
2022/09/15 03:37:39;;;;;;;23.17;14.80;;;;;;;;;;6236852;23;20489;-92
2022/09/15 03:40:22;;;;;;;25.23;16.63;;;;;;;;;;6237650;23;20393;-92
2022/09/15 03:42:55;;;;;;;15.67;13.23;;;;;;;;;;6221535;23;20408;-91
2022/09/15 03:45:24;;;;;;;16.30;13.33;;;;;;;;;;6222418;23;20742;-92
2022/09/15 03:58:22;;;;;;;15.87;13.03;;;;;;;;;;6229413;23;20271;-92
2022/09/15 04:01:24;;;;;;;17.80;15.77;;;;;;;;;;6260594;22;20451;-93
2022/09/15 04:09:48;;;;;;;19.77;15.37;;;;;;;;;;6171389;23;20391;-91
2022/09/15 04:17:55;;;;;;;23.17;16.63;;;;;;;;;;6254626;22;20448;-92
2022/09/15 04:20:21;;;;;;;22.00;14.83;;;;;;;;;;6280395;22;20385;-92
2022/09/15 04:23:16;;;;;;;24.73;15.80;;;;;;;;;;6287254;22;20400;-93
2022/09/15 04:26:05;;;;;;;24.90;16.97;;;;;;;;;;6197465;23;20417;-94
2022/09/15 04:29:02;;;;;;;;;;;;;;;;;;;;;
2022/09/15 04:32:06;;;;;;;25.57;18.60;;;;;;;;;;6194698;23;20376;-91
2022/09/15 04:55:45;;;;;;;28.43;18.10;;;;;;;;;;6246603;23;20412;-93
2022/09/15 04:58:43;;;;;;;21.67;16.67;;;;;;;;;;6262244;23;20409;-93
2022/09/15 05:01:58;;;;;;;;;;;;;;;;;;;;;
2022/09/15 05:07:59;;;;;;;25.60;17.43;;;;;;;;;;6257527;22;20445;-94
2022/09/15 05:10:28;;;;;;;27.57;18.43;;;;;;;;;;6285386;22;20393;-93
2022/09/15 05:15:48;;;;;;;27.23;18.57;;;;;;;;;;6232059;23;20209;-93
2022/09/15 05:18:36;;;;;;;24.10;17.70;;;;;;;;;;6208009;22;20452;-93
2022/09/15 05:21:18;;;;;;;;;;;;;;;;;;;;;
2022/09/15 05:23:56;;;;;;;;;;;;;;;;;;;;;
2022/09/15 05:26:27;;;;;;;22.73;17.30;;;;;;;;;;6255348;23;20393;-93
2022/09/15 05:28:56;;;;;;;26.70;18.80;;;;;;;;;;6226656;23;20446;-93
2022/09/15 05:31:54;;;;;;;;;;;;;;;;;;;;;
2022/09/15 05:37:09;;;;;;;24.40;19.10;;;;;;;;;;6262158;22;20444;-90
2022/09/15 05:42:34;;;;;;;28.90;19.47;;;;;;;;;;6223762;22;20475;-94
2022/09/15 05:45:45;;;;;;;21.80;16.97;;;;;;;;;;6257353;22;20535;-93
2022/09/15 05:48:19;;;;;;;22.07;17.50;;;;;;;;;;6288007;22;20367;-93
2022/09/15 05:51:13;;;;;;;25.73;18.27;;;;;;;;;;6278670;22;20381;-93
2022/09/15 05:54:06;;;;;;;;;;;;;;;;;;;;;
2022/09/15 05:56:40;;;;;;;21.40;17.50;;;;;;;;;;6259243;23;20413;-91
2022/09/15 05:59:08;;;;;;;23.47;18.87;;;;;;;;;;6235141;23;20429;-93
2022/09/15 06:01:46;;;;;;;25.20;17.17;;;;;;;;;;6237874;22;20405;-91
2022/09/15 06:04:52;;;;;;;22.87;18.97;;;;;;;;;;6243135;22;20381;-91
2022/09/15 06:07:41;;;;;;;23.20;18.50;;;;;;;;;;6178285;23;20391;-93
2022/09/15 06:10:23;;;;;;;29.43;18.43;;;;;;;;;;6224253;23;20460;-90
2022/09/15 06:13:00;;;;;;;23.57;15.90;;;;;;;;;;6256936;23;20461;-91
2022/09/15 06:15:33;;;;;;;20.83;15.93;;;;;;;;;;6232314;23;20374;-93
2022/09/15 06:18:05;;;;;;;18.27;15.90;;;;;;;;;;6238229;23;20490;-93
2022/09/15 06:20:32;;;;;;;18.77;14.70;;;;;;;;;;6267946;23;20343;-91
2022/09/15 06:28:13;;;;;;;18.87;15.63;;;;;;;;;;6220560;23;20437;-91
2022/09/15 06:30:47;;;;;;;20.87;16.00;;;;;;;;;;6236523;23;20550;-90
2022/09/15 06:36:11;;;;;;;21.87;15.73;;;;;;;;;;6247129;22;20450;-94
2022/09/15 06:39:21;;;;;;;22.00;16.77;;;;;;;;;;6259437;23;20397;-93
2022/09/15 06:42:25;;;;;;;;;;;;;;;;;;;;;
2022/09/15 06:45:04;;;;;;;20.50;14.37;;;;;;;;;;6260757;23;20385;-94
2022/09/15 06:53:26;;;;;;;20.80;16.60;;;;;;;;;;6250044;22;20451;-91
2022/09/15 06:58:35;;;;;;;19.07;15.00;;;;;;;;;;6226461;22;20551;-91
2022/09/15 07:04:18;;;;;;;20.73;14.97;;;;;;;;;;6276668;22;20387;-94
2022/09/15 07:06:53;;;;;;;16.57;14.87;;;;;;;;;;6219903;23;20462;-95
2022/09/15 07:09:21;;;;;;;22.47;14.90;;;;;;;;;;6220450;23;20397;-88
2022/09/15 07:11:57;;;;;;;16.23;14.47;;;;;;;;;;6241556;22;20485;-92
2022/09/15 07:17:36;;;;;;;19.73;16.03;;;;;;;;;;6275985;22;20880;-91
2022/09/15 07:20:03;;;;;;;23.43;17.63;;;;;;;;;;6245168;22;20420;-89
2022/09/15 07:25:44;;;;;;;22.57;18.27;;;;;;;;;;6278461;22;20381;-91
2022/09/15 07:28:31;;;;;;;21.73;15.90;;;;;;;;;;6248224;22;20490;-91
2022/09/15 08:11:11;;;;;;;15.53;14.00;;;;;;;;;;6260793;22;20535;-91
2022/09/15 08:13:46;;;;;;;16.23;14.70;;;;;;;;;;6255451;22;20426;-90
2022/09/15 08:16:14;;;;;;;15.70;14.20;;;;;;;;;;6256871;22;20414;-92
2022/09/15 08:19:20;;;;;;;18.03;16.17;;;;;;;;;;6249785;22;20802;-90
2022/09/15 08:28:15;;;;;;;17.93;16.03;;;;;;;;;;6238183;22;20468;-93
2022/09/15 08:31:02;;;;;;;18.97;17.10;;;;;;;;;;6251244;22;20444;-93
2022/09/15 08:33:28;;;;;;;21.43;16.10;;;;;;;;;;6258862;22;20462;-92
2022/09/15 08:35:55;;;;;;;20.40;18.30;;;;;;;;;;6257889;22;20381;-91
2022/09/15 08:38:26;;;;;;;22.53;17.53;;;;;;;;;;6286649;22;20421;-90
2022/09/15 08:41:08;;;;;;;17.10;15.50;;;;;;;;;;6261944;22;20441;-92
2022/09/15 08:43:45;;;;;;;20.20;16.50;;;;;;;;;;6292349;22;20530;-93
2022/09/15 08:46:19;;;;;;;19.47;17.57;;;;;;;;;;6293641;22;20372;-88
2022/09/15 08:48:50;;;;;;;16.67;15.07;;;;;;;;;;6270627;22;20421;-91
2022/09/15 08:51:29;;;;;;;17.40;15.00;;;;;;;;;;6199286;23;20402;-93
2022/09/15 08:54:11;;;;;;;17.80;16.07;;;;;;;;;;6220014;23;20390;-93
2022/09/15 08:56:38;;;;;;;16.97;15.57;;;;;;;;;;6226150;23;20674;-91
2022/09/15 08:59:04;;;;;;;17.00;15.40;;;;;;;;;;6211492;23;20925;-90
2022/09/15 09:01:42;;;;;;;18.07;16.47;;;;;;;;;;6212374;23;20371;-92
2022/09/15 09:04:22;;;;;;;19.60;15.37;;;;;;;;;;6222061;23;20386;-92
2022/09/15 09:06:48;;;;;;;15.23;13.90;;;;;;;;;;6221219;23;20429;-92
2022/09/15 09:09:18;;;;;;;14.90;13.50;;;;;;;;;;6220872;23;20386;-93
2022/09/15 09:12:04;;;;;;;18.47;14.20;;;;;;;;;;6217518;23;20407;-92
2022/09/15 09:14:42;;;;;;;14.93;11.10;;;;;;;;;;6218320;23;20375;-91
2022/09/15 09:17:41;;;;;;;11.37;10.50;;;;;;;;;;6218696;23;20417;-92
2022/09/15 09:20:21;;;;;;;7.90;7.30;;;;;;;;;;6146594;23;20378;-88
2022/09/15 09:22:50;;;;;;;7.80;6.90;;;;;;;;;;6217422;23;20370;-92
2022/09/15 09:25:18;;;;;;;7.47;6.87;;;;;;;;;;6219469;23;20387;-91
2022/09/15 09:27:44;;;;;;;6.50;6.10;;;;;;;;;;6215952;23;20393;-92
2022/09/15 09:30:33;;;;;;;6.40;5.50;;;;;;;;;;6221439;23;20736;-91
2022/09/15 09:33:05;;;;;;;7.93;6.20;;;;;;;;;;6224180;23;20930;-90
2022/09/15 09:35:52;;;;;;;6.60;6.10;;;;;;;;;;6227050;23;20402;-92
2022/09/15 09:43:32;;;;;;;6.20;5.10;;;;;;;;;;6250579;22;20446;-92
2022/09/15 09:48:48;;;;;;;7.90;7.03;;;;;;;;;;6206827;22;20477;-90
2022/09/15 09:53:52;;;;;;;4.77;4.37;;;;;;;;;;6264619;22;20519;-92
2022/09/15 09:58:57;;;;;;;5.10;4.80;;;;;;;;;;6260111;22;20456;-91
2022/09/15 10:04:22;;;;;;;5.43;5.03;;;;;;;;;;6168005;22;20424;-91
2022/09/15 10:06:56;;;;;;;5.10;4.80;;;;;;;;;;6267641;22;20477;-92
2022/09/15 10:09:23;;;;;;;10.10;4.80;;;;;;;;;;6238395;23;20437;-94
2022/09/15 10:14:54;;;;;;;5.10;4.77;;;;;;;;;;6248885;22;20536;-93
2022/09/15 10:17:26;;;;;;;6.10;4.40;;;;;;;;;;6251650;23;20425;-92
2022/09/15 10:23:23;;;;;;;4.40;4.10;;;;;;;;;;6247056;23;20431;-89
2022/09/15 10:25:52;;;;;;;6.00;4.40;;;;;;;;;;6239636;23;20480;-89
2022/09/15 10:28:24;;;;;;;4.67;4.27;;;;;;;;;;6244059;22;20405;-90
2022/09/15 10:31:00;;;;;;;14.27;11.00;;;;;;;;;;6241115;22;20427;-88
2022/09/15 10:33:27;;;;;;;6.60;5.57;;;;;;;;;;6241995;22;20366;-89
2022/09/15 10:35:54;;;;;;;4.50;4.10;;;;;;;;;;6240468;22;20472;-88
2022/09/15 10:38:31;;;;;;;2.73;2.63;;;;;;;;;;6242965;22;20416;-90
2022/09/15 10:41:19;;;;;;;2.30;2.30;;;;;;;;;;6241945;23;20389;-89
2022/09/15 10:43:51;;;;;;;6.33;2.67;;;;;;;;;;6239018;23;20559;-88
2022/09/15 10:46:25;;;;;;;2.20;2.10;;;;;;;;;;6241596;23;20377;-88
2022/09/15 10:49:21;;;;;;;2.10;1.90;;;;;;;;;;6233710;22;20447;-89
2022/09/15 10:52:38;;;;;;;;;;;;;;;;;;;;;
2022/09/15 11:07:27;;;;;;;2.90;2.70;;;;;;;;;;6263000;23;20377;-91
2022/09/15 11:10:22;;;;;;;3.20;2.03;;;;;;;;;;6251049;22;20618;-90
2022/09/15 11:13:18;;;;;;;1.83;1.60;;;;;;;;;;6225153;23;20386;-93
2022/09/15 11:15:44;;;;;;;5.10;2.43;;;;;;;;;;6228436;23;20390;-93
2022/09/15 11:21:27;;;;;;;4.33;1.97;;;;;;;;;;6186890;23;20500;-90
2022/09/15 11:27:05;;;;;;;3.43;1.70;;;;;;;;;;6253617;23;20429;-89
2022/09/15 11:29:43;;;;;;;2.93;1.67;;;;;;;;;;6220663;23;20396;-91
2022/09/15 11:35:30;;;;;;;4.33;1.93;;;;;;;;;;6246722;23;20370;-90
2022/09/15 11:38:50;;;;;;;2.57;2.43;;;;;;;;;;6238751;22;20571;-90
2022/09/15 11:41:41;;;;;;;1.93;1.70;;;;;;;;;;6251507;23;20473;-89
2022/09/15 11:44:13;;;;;;;3.60;1.90;;;;;;;;;;6247474;22;20450;-89
2022/09/15 11:46:57;;;;;;;2.10;2.10;;;;;;;;;;6244613;23;20393;-90
2022/09/15 11:49:27;;;;;;;3.20;2.10;;;;;;;;;;6244549;22;20398;-87
2022/09/15 11:52:11;;;;;;;2.10;2.00;;;;;;;;;;6243643;23;20491;-88
2022/09/15 11:55:13;;;;;;;2.27;2.07;;;;;;;;;;6244968;22;20761;-90
2022/09/15 11:57:50;;;;;;;12.13;2.80;;;;;;;;;;6205540;22;20492;-88
2022/09/15 12:00:25;;;;;;;3.73;2.47;;;;;;;;;;6219694;23;20500;-88
2022/09/15 12:06:06;;;;;;;4.73;2.30;;;;;;;;;;6264596;22;20452;-91
2022/09/15 12:08:50;;;;;;;2.83;2.20;;;;;;;;;;6161191;23;20445;-90
2022/09/15 12:11:24;;;;;;;8.80;2.30;;;;;;;;;;6226297;22;20472;-93
2022/09/15 12:13:53;;;;;;;7.03;2.40;;;;;;;;;;6266622;22;20368;-90
2022/09/15 12:16:22;;;;;;;3.23;2.40;;;;;;;;;;6268708;22;20397;-91
2022/09/15 12:22:07;;;;;;;2.53;2.33;;;;;;;;;;6247318;22;20456;-92
2022/09/15 12:27:35;;;;;;;15.00;13.20;;;;;;;;;;6236565;22;20721;-91
2022/09/15 12:30:24;;;;;;;2.80;2.60;;;;;;;;;;6261542;23;20409;-91
2022/09/15 12:32:51;;;;;;;3.87;2.60;;;;;;;;;;6243619;22;20495;-91
2022/09/15 12:35:20;;;;;;;1.80;1.70;;;;;;;;;;6257998;23;20404;-91
2022/09/15 12:38:19;;;;;;;2.83;2.07;;;;;;;;;;6252783;23;20731;-93
2022/09/15 12:40:58;;;;;;;3.60;2.33;;;;;;;;;;6249579;23;20423;-90
2022/09/15 12:43:26;;;;;;;11.03;3.00;;;;;;;;;;6231456;22;20892;-91
2022/09/15 12:48:55;;;;;;;3.27;2.70;;;;;;;;;;6283060;22;20443;-92
2022/09/15 12:53:53;;;;;;;2.33;2.20;;;;;;;;;;6251664;22;20484;-91
2022/09/15 12:59:25;;;;;;;2.67;2.33;;;;;;;;;;6261121;22;20373;-91
2022/09/15 13:02:17;;;;;;;7.83;2.40;;;;;;;;;;6255951;22;20397;-90
2022/09/15 13:14:02;;;;;;;5.53;2.60;;;;;;;;;;6251442;22;21002;-92
2022/09/15 13:17:02;;;;;;;2.63;1.40;;;;;;;;;;6238630;23;20397;-91
2022/09/15 13:19:57;;;;;;;2.63;1.80;;;;;;;;;;6252427;23;20397;-91
2022/09/15 13:22:28;;;;;;;4.10;1.93;;;;;;;;;;6251562;23;20377;-88
2022/09/15 13:25:27;;;;;;;1.87;1.77;;;;;;;;;;6251273;23;20891;-91
2022/09/15 13:27:54;;;;;;;5.10;2.80;;;;;;;;;;6232626;23;20401;-90
2022/09/15 13:30:36;;;;;;;2.70;1.90;;;;;;;;;;6250127;23;20466;-90
2022/09/15 13:33:11;;;;;;;4.10;2.23;;;;;;;;;;6252977;23;20849;-92
2022/09/15 13:35:44;;;;;;;2.87;2.23;;;;;;;;;;6254848;23;20442;-92
2022/09/15 13:38:30;;;;;;;3.33;2.93;;;;;;;;;;6255257;23;20437;-91
2022/09/15 13:41:18;;;;;;;1.73;1.63;;;;;;;;;;6259367;23;20385;-92
2022/09/15 13:44:13;;;;;;;1.70;1.60;;;;;;;;;;6257323;23;20865;-93
2022/09/15 13:47:07;;;;;;;2.57;2.23;;;;;;;;;;6259324;23;20381;-93
2022/09/15 13:49:44;;;;;;;2.30;1.60;;;;;;;;;;6241314;23;20386;-92
2022/09/15 13:52:30;;;;;;;2.30;1.20;;;;;;;;;;6230333;23;20363;-93
2022/09/15 13:55:19;;;;;;;2.73;1.53;;;;;;;;;;6229219;23;20386;-90
2022/09/15 13:57:53;;;;;;;1.13;1.00;;;;;;;;;;6226061;23;20426;-91
2022/09/15 14:01:00;;;;;;;18.93;17.27;;;;;;;;;;6229398;23;20410;-94
2022/09/15 14:03:44;;;;;;;1.53;1.43;;;;;;;;;;6210786;23;20687;-90
2022/09/15 14:06:22;;;;;;;1.03;1.03;;;;;;;;;;6211277;23;20378;-90
2022/09/15 14:08:52;;;;;;;1.10;1.00;;;;;;;;;;6212950;23;20370;-91
2022/09/15 14:11:26;;;;;;;1.60;1.60;;;;;;;;;;6210404;23;20428;-90
2022/09/15 14:13:53;;;;;;;1.40;1.30;;;;;;;;;;6213245;23;20433;-91
2022/09/15 14:16:22;;;;;;;1.50;1.40;;;;;;;;;;6213410;23;20409;-90
2022/09/15 14:18:49;;;;;;;1.57;1.50;;;;;;;;;;6212300;23;20390;-90
2022/09/15 14:21:16;;;;;;;1.27;1.27;;;;;;;;;;6211634;23;20401;-90
2022/09/15 14:23:50;;;;;;;2.07;1.07;;;;;;;;;;6213630;23;20389;-91
2022/09/15 14:26:20;;;;;;;2.67;1.77;;;;;;;;;;6210727;23;20393;-88
2022/09/15 14:28:57;;;;;;;1.07;1.07;;;;;;;;;;6217155;23;20417;-91
2022/09/15 14:31:57;;;;;;;1.40;1.30;;;;;;;;;;6222468;23;20378;-93
2022/09/15 14:34:34;;;;;;;1.73;1.63;;;;;;;;;;6231123;23;20355;-91
2022/09/15 14:39:51;;;;;;;1.73;1.63;;;;;;;;;;6267237;22;20456;-90
2022/09/15 14:50:27;;;;;;;5.07;2.30;;;;;;;;;;6267453;22;20463;-89
2022/09/15 14:53:12;;;;;;;1.90;1.70;;;;;;;;;;6248264;22;20439;-93
2022/09/15 15:03:53;;;;;;;2.50;2.27;;;;;;;;;;6267813;22;20438;-93
2022/09/15 15:07:14;;;;;;;5.33;2.37;;;;;;;;;;6233481;23;20416;-92
2022/09/15 15:09:45;;;;;;;4.73;1.40;;;;;;;;;;6194081;23;20380;-87
2022/09/15 15:12:44;;;;;;;1.90;1.60;;;;;;;;;;6271247;22;20463;-92
2022/09/15 15:15:23;;;;;;;;;;;;;;;;;;;;;
2022/09/15 15:18:06;;;;;;;2.93;1.80;;;;;;;;;;6289223;22;20576;-90
2022/09/15 15:20:48;;;;;;;;;;;;;;;;;;;;;
2022/09/15 15:39:59;;;;;;;;;;;;;;;;;;;;;
2022/09/15 15:42:27;;;;;;;2.33;2.13;;;;;;;;;;6107408;23;20393;-91
2022/09/15 15:45:02;;;;;;;3.83;1.87;;;;;;;;;;6080971;23;20398;-90
2022/09/15 15:47:35;;;;;;;1.43;1.33;;;;;;;;;;6098018;23;20377;-91
2022/09/15 16:14:17;;;;;;;2.37;2.07;;;;;;;;;;6262314;22;20610;-93
2022/09/15 17:55:53;;;;;;;4.33;1.50;;;;;;;;;;6147126;23;20416;-90
2022/09/15 17:58:19;;;;;;;1.20;1.20;;;;;;;;;;6207930;22;20460;-91
2022/09/15 19:17:04;;;;;;;1.57;1.50;;;;;;;;;;6219631;22;20861;-86
